createdAt,value
2018-11-14T00:00:16.703Z,11.93
2018-11-14T00:02:45.425Z,13.83
2018-11-14T00:05:16.167Z,13.93
2018-11-14T00:07:44.981Z,13.50
2018-11-14T00:10:13.829Z,14.70
2018-11-14T00:12:42.866Z,15.23
2018-11-14T00:15:14.235Z,15.93
2018-11-14T00:17:44.146Z,13.63
2018-11-14T00:20:13.275Z,16.97
2018-11-14T00:22:43.320Z,15.53
2018-11-14T00:25:11.985Z,15.10
2018-11-14T00:27:40.755Z,13.70
2018-11-14T00:30:12.555Z,15.40
2018-11-14T00:32:41.390Z,13.50
2018-11-14T00:35:11.373Z,14.73
2018-11-14T00:37:40.590Z,12.00
2018-11-14T00:40:10.851Z,14.53
2018-11-14T00:42:39.879Z,17.33
2018-11-14T00:45:10.503Z,13.63
2018-11-14T00:47:39.182Z,11.63
2018-11-14T00:50:08.854Z,12.63
2018-11-14T00:52:37.688Z,12.73
2018-11-14T00:55:10.091Z,14.90
2018-11-14T00:57:38.837Z,15.23
2018-11-14T01:00:11.710Z,11.37
2018-11-14T01:02:40.593Z,13.43
2018-11-14T01:05:10.457Z,12.17
2018-11-14T01:07:39.201Z,15.57
2018-11-14T01:10:10.654Z,11.40
2018-11-14T01:12:39.654Z,12.23
2018-11-14T01:15:13.421Z,12.27
2018-11-14T01:17:42.308Z,11.67
2018-11-14T01:20:12.968Z,12.40
2018-11-14T01:22:42.468Z,14.90
2018-11-14T01:25:12.432Z,13.80
2018-11-14T01:27:41.061Z,12.30
2018-11-14T01:30:12.366Z,14.97
2018-11-14T01:32:41.207Z,11.17
2018-11-14T01:35:09.909Z,14.17
2018-11-14T01:37:38.605Z,9.50
2018-11-14T01:40:21.800Z,10.83
2018-11-14T01:42:51.762Z,10.87
2018-11-14T01:45:21.089Z,10.20
2018-11-14T01:47:49.996Z,13.00
2018-11-14T01:50:18.852Z,11.57
2018-11-14T01:52:47.482Z,12.07
2018-11-14T01:55:17.224Z,12.53
2018-11-14T01:57:46.082Z,12.07
2018-11-14T02:00:17.666Z,11.13
2018-11-14T02:02:46.241Z,15.80
2018-11-14T02:05:15.027Z,13.53
2018-11-14T02:07:43.790Z,16.43
2018-11-14T02:10:13.878Z,12.47
2018-11-14T02:12:42.947Z,11.37
2018-11-14T02:15:14.421Z,12.93
2018-11-14T02:17:43.104Z,11.23
2018-11-14T02:20:12.427Z,12.40
2018-11-14T02:22:41.465Z,13.53
2018-11-14T02:25:11.002Z,13.77
2018-11-14T02:27:40.549Z,11.17
2018-11-14T02:30:13.196Z,14.20
2018-11-14T02:32:41.865Z,13.97
2018-11-14T02:35:10.812Z,14.47
2018-11-14T02:37:40.295Z,11.40
2018-11-14T02:40:10.685Z,11.70
2018-11-14T02:42:39.431Z,15.57
2018-11-14T02:45:08.487Z,12.40
2018-11-14T02:47:37.182Z,13.57
2018-11-14T02:50:06.576Z,13.20
2018-11-14T02:52:35.213Z,12.67
2018-11-14T02:55:03.918Z,13.60
2018-11-14T02:57:32.642Z,13.67
2018-11-14T03:00:01.336Z,10.23
2018-11-14T03:02:29.988Z,12.53
2018-11-14T03:04:58.824Z,13.00
2018-11-14T03:07:28.396Z,16.07
2018-11-14T03:09:56.934Z,9.73
2018-11-14T03:12:25.654Z,10.40
2018-11-14T03:14:54.452Z,11.47
2018-11-14T03:17:23.146Z,14.27
2018-11-14T03:19:51.826Z,12.23
2018-11-14T03:22:20.476Z,10.30
2018-11-14T03:24:49.120Z,12.23
2018-11-14T03:27:17.684Z,11.23
2018-11-14T03:29:46.459Z,11.73
2018-11-14T03:32:15.066Z,11.23
2018-11-14T03:34:43.720Z,12.50
2018-11-14T03:37:12.418Z,17.70
2018-11-14T03:39:41.031Z,12.43
2018-11-14T03:42:09.701Z,14.03
2018-11-14T03:44:38.369Z,12.23
2018-11-14T03:47:07.081Z,12.73
2018-11-14T03:49:35.737Z,15.43
2018-11-14T03:52:09.797Z,11.70
2018-11-14T03:54:38.457Z,13.17
2018-11-14T03:57:07.096Z,12.00
2018-11-14T03:59:35.773Z,14.50
2018-11-14T04:02:04.521Z,15.03
2018-11-14T04:04:33.230Z,14.37
2018-11-14T04:07:01.923Z,13.63
2018-11-14T04:09:30.592Z,12.93
2018-11-14T04:11:59.187Z,12.47
2018-11-14T04:14:28.061Z,17.60
2018-11-14T04:16:56.659Z,16.17
2018-11-14T04:19:25.291Z,13.17
2018-11-14T04:21:53.976Z,14.43
2018-11-14T04:24:22.551Z,15.27
2018-11-14T04:26:51.248Z,14.03
2018-11-14T04:29:19.892Z,12.77
2018-11-14T04:31:48.516Z,14.07
2018-11-14T04:34:17.255Z,12.70
2018-11-14T04:36:45.971Z,14.43
2018-11-14T04:39:14.651Z,13.87
2018-11-14T04:41:43.398Z,13.07
2018-11-14T04:44:12.001Z,18.60
2018-11-14T04:46:40.682Z,12.37
2018-11-14T04:49:09.380Z,13.17
2018-11-14T04:51:38.028Z,15.97
2018-11-14T04:54:06.638Z,16.87
2018-11-14T04:56:35.272Z,14.67
2018-11-14T04:59:04.061Z,17.20
2018-11-14T05:01:32.747Z,18.80
2018-11-14T05:04:01.484Z,15.40
2018-11-14T05:06:30.246Z,13.97
2018-11-14T05:08:58.903Z,12.47
2018-11-14T05:11:27.554Z,13.90
2018-11-14T05:13:56.208Z,15.30
2018-11-14T05:16:24.926Z,13.10
2018-11-14T05:18:53.600Z,16.90
2018-11-14T05:21:22.234Z,18.47
2018-11-14T05:23:50.845Z,16.40
2018-11-14T05:26:19.403Z,16.47
2018-11-14T05:28:48.081Z,19.90
2018-11-14T05:31:16.770Z,17.37
2018-11-14T05:33:45.434Z,19.50
2018-11-14T05:36:14.131Z,17.50
2018-11-14T05:38:42.754Z,20.43
2018-11-14T05:41:11.362Z,15.83
2018-11-14T05:43:42.069Z,18.30
2018-11-14T05:46:10.765Z,21.10
2018-11-14T05:48:39.427Z,18.50
2018-11-14T05:51:08.047Z,20.40
2018-11-14T05:53:36.751Z,15.77
2018-11-14T05:56:05.574Z,21.63
2018-11-14T05:58:34.265Z,20.90
2018-11-14T06:01:02.933Z,23.93
2018-11-14T06:03:31.639Z,22.33
2018-11-14T06:06:00.452Z,21.07
2018-11-14T06:08:29.131Z,21.53
2018-11-14T06:10:57.881Z,23.97
2018-11-14T06:13:26.574Z,19.57
2018-11-14T06:15:55.242Z,20.50
2018-11-14T06:18:24.015Z,27.07
2018-11-14T06:20:52.763Z,22.17
2018-11-14T06:23:21.452Z,21.63
2018-11-14T06:25:50.191Z,21.73
2018-11-14T06:28:18.961Z,22.67
2018-11-14T06:30:47.641Z,20.30
2018-11-14T06:33:16.350Z,22.97
2018-11-14T06:35:45.195Z,23.33
2018-11-14T06:38:13.870Z,27.73
2018-11-14T06:40:42.575Z,23.67
2018-11-14T06:43:11.356Z,17.77
2018-11-14T06:45:40.074Z,21.53
2018-11-14T06:48:08.781Z,25.10
2018-11-14T06:50:37.576Z,21.63
2018-11-14T06:53:07.118Z,25.33
2018-11-14T06:55:35.813Z,22.67
2018-11-14T06:58:04.598Z,20.77
2018-11-14T07:00:34.388Z,22.30
2018-11-14T07:03:04.509Z,20.00
2018-11-14T07:05:33.495Z,20.70
2018-11-14T07:08:02.190Z,24.37
2018-11-14T07:10:32.378Z,24.17
2018-11-14T07:13:12.461Z,25.33
2018-11-14T07:15:41.978Z,26.90
2018-11-14T07:18:11.422Z,23.47
2018-11-14T07:20:41.630Z,22.33
2018-11-14T07:23:10.306Z,21.13
2018-11-14T07:25:38.994Z,20.30
2018-11-14T07:28:07.805Z,22.33
2018-11-14T07:30:37.280Z,19.67
2018-11-14T07:33:08.269Z,22.63
2018-11-14T07:35:36.994Z,22.63
2018-11-14T07:38:45.696Z,19.73
2018-11-14T07:41:19.943Z,23.70
2018-11-14T07:43:48.806Z,26.43
2018-11-14T07:46:17.454Z,25.77
2018-11-14T07:48:47.186Z,27.47
2018-11-14T07:51:16.068Z,23.57
2018-11-14T07:53:44.774Z,22.80
2018-11-14T07:56:13.456Z,29.67
2018-11-14T07:58:42.163Z,22.67
2018-11-14T08:01:10.938Z,24.07
2018-11-14T08:03:39.680Z,26.77
2018-11-14T08:06:08.423Z,24.97
2018-11-14T08:08:37.164Z,24.00
2018-11-14T08:11:06.418Z,23.00
2018-11-14T08:13:35.987Z,23.13
2018-11-14T08:16:04.918Z,24.67
2018-11-14T08:18:33.668Z,23.20
2018-11-14T08:21:03.167Z,19.47
2018-11-14T08:23:31.931Z,21.07
2018-11-14T08:26:01.085Z,19.93
2018-11-14T08:28:29.856Z,22.87
2018-11-14T08:30:58.604Z,21.30
2018-11-14T08:33:27.399Z,21.13
2018-11-14T08:35:56.201Z,21.63
2018-11-14T08:38:24.990Z,22.27
2018-11-14T08:40:53.683Z,18.67
2018-11-14T08:43:22.425Z,20.83
2018-11-14T08:45:51.223Z,20.97
2018-11-14T08:48:20.070Z,21.17
2018-11-14T08:50:48.784Z,18.60
2018-11-14T08:53:17.472Z,20.53
2018-11-14T08:55:46.331Z,21.67
2018-11-14T08:58:15.127Z,20.47
2018-11-14T09:00:43.998Z,23.00
2018-11-14T09:03:13.686Z,18.30
2018-11-14T09:05:42.353Z,20.13
2018-11-14T09:08:11.119Z,16.73
2018-11-14T09:10:39.967Z,16.17
2018-11-14T09:13:14.962Z,19.63
2018-11-14T09:15:43.594Z,14.60
2018-11-14T09:18:12.465Z,15.17
2018-11-14T09:20:41.196Z,16.43
2018-11-14T09:23:09.890Z,16.63
2018-11-14T09:25:38.638Z,14.93
2018-11-14T09:28:07.468Z,15.37
2018-11-14T09:30:36.207Z,15.93
2018-11-14T09:33:05.369Z,15.23
2018-11-14T09:35:34.134Z,16.83
2018-11-14T09:38:02.904Z,16.40
2018-11-14T09:40:31.740Z,18.43
2018-11-14T09:43:00.403Z,15.23
2018-11-14T09:45:30.130Z,14.80
2018-11-14T09:47:58.882Z,16.10
2018-11-14T09:50:30.265Z,14.80
2018-11-14T09:53:02.324Z,13.30
2018-11-14T09:55:31.080Z,14.90
2018-11-14T09:57:59.946Z,13.37
2018-11-14T10:00:30.215Z,13.43
2018-11-14T10:03:10.790Z,11.50
2018-11-14T10:05:39.588Z,13.37
2018-11-14T10:08:08.500Z,13.13
2018-11-14T10:10:37.282Z,15.50
2018-11-14T10:13:06.294Z,13.43
2018-11-14T10:15:35.159Z,14.60
2018-11-14T10:18:03.988Z,14.90
2018-11-14T10:20:32.905Z,13.13
2018-11-14T10:23:01.671Z,14.13
2018-11-14T10:25:30.448Z,12.60
2018-11-14T10:27:59.119Z,13.00
2018-11-14T10:30:28.655Z,12.57
2018-11-14T10:32:57.694Z,13.23
2018-11-14T10:35:26.590Z,10.60
2018-11-14T10:37:55.383Z,15.13
2018-11-14T10:40:27.403Z,13.30
2018-11-14T10:42:56.290Z,13.73
2018-11-14T10:45:25.796Z,12.17
2018-11-14T10:47:54.578Z,10.83
2018-11-14T10:50:24.368Z,17.27
2018-11-14T10:52:53.149Z,12.03
2018-11-14T10:55:22.275Z,12.30
2018-11-14T10:57:51.225Z,11.17
2018-11-14T11:00:30.571Z,12.70
2018-11-14T11:03:05.293Z,11.20
2018-11-14T11:05:39.139Z,10.10
2018-11-14T11:08:13.044Z,12.17
2018-11-14T11:10:46.898Z,11.70
2018-11-14T11:13:21.028Z,13.53
2018-11-14T11:15:55.080Z,13.73
2018-11-14T11:18:29.309Z,10.60
2018-11-14T11:20:58.104Z,12.80
2018-11-14T11:23:26.776Z,9.33
2018-11-14T11:25:55.532Z,11.20
2018-11-14T11:28:24.226Z,8.90
2018-11-14T11:30:53.077Z,11.27
2018-11-14T11:33:21.932Z,10.03
2018-11-14T11:35:50.714Z,10.77
2018-11-14T11:38:20.402Z,10.03
2018-11-14T11:40:49.245Z,9.60
2018-11-14T11:43:17.947Z,10.33
2018-11-14T11:45:46.755Z,9.57
2018-11-14T11:48:15.623Z,12.33
2018-11-14T11:50:44.372Z,9.70
2018-11-14T11:53:13.118Z,10.43
2018-11-14T11:55:41.970Z,11.43
2018-11-14T11:58:10.712Z,8.73
2018-11-14T12:00:39.640Z,11.93
2018-11-14T12:03:08.199Z,9.67
2018-11-14T12:05:36.991Z,13.00
2018-11-14T12:08:06.619Z,9.67
2018-11-14T12:10:36.100Z,11.73
2018-11-14T12:13:05.168Z,10.93
2018-11-14T12:15:34.253Z,8.50
2018-11-14T12:18:03.041Z,9.60
2018-11-14T12:20:31.828Z,12.27
2018-11-14T12:23:00.628Z,12.07
2018-11-14T12:25:29.453Z,8.63
2018-11-14T12:27:58.248Z,10.73
2018-11-14T12:30:27.152Z,8.53
2018-11-14T12:32:55.924Z,14.47
2018-11-14T12:35:24.747Z,9.93
2018-11-14T12:37:53.755Z,11.97
2018-11-14T12:40:22.611Z,8.47
2018-11-14T12:42:51.468Z,8.03
2018-11-14T12:45:20.236Z,8.10
2018-11-14T12:47:49.013Z,9.27
2018-11-14T12:50:17.808Z,9.83
2018-11-14T12:52:46.680Z,6.83
2018-11-14T12:55:17.600Z,9.73
2018-11-14T12:57:46.523Z,7.83
2018-11-14T13:00:17.843Z,9.77
2018-11-14T13:02:46.721Z,8.30
2018-11-14T13:05:15.931Z,8.10
2018-11-14T13:07:44.933Z,8.27
2018-11-14T13:10:15.856Z,10.20
2018-11-14T13:12:45.275Z,8.97
2018-11-14T13:15:14.943Z,9.00
2018-11-14T13:17:44.164Z,6.70
2018-11-14T13:20:14.834Z,11.37
2018-11-14T13:22:44.240Z,8.53
2018-11-14T13:25:13.878Z,7.87
2018-11-14T13:27:43.800Z,6.50
2018-11-14T13:30:16.467Z,6.90
2018-11-14T13:32:46.087Z,8.00
2018-11-14T13:35:16.044Z,9.33
2018-11-14T13:37:45.674Z,6.60
2018-11-14T13:40:14.410Z,9.40
2018-11-14T13:42:43.298Z,7.47
2018-11-14T13:45:13.426Z,7.33
2018-11-14T13:47:42.744Z,8.73
2018-11-14T13:50:15.679Z,7.90
2018-11-14T13:52:44.363Z,8.10
2018-11-14T13:55:14.484Z,6.70
2018-11-14T13:57:44.860Z,9.10
2018-11-14T14:00:14.953Z,8.50
2018-11-14T14:02:44.515Z,7.17
2018-11-14T14:05:14.682Z,7.00
2018-11-14T14:07:43.527Z,10.03
2018-11-14T14:10:13.691Z,8.73
2018-11-14T14:12:43.567Z,5.93
2018-11-14T14:15:27.790Z,6.33
2018-11-14T14:17:56.833Z,9.13
2018-11-14T14:20:25.761Z,9.33
2018-11-14T14:22:54.482Z,5.50
2018-11-14T14:25:23.729Z,6.80
2018-11-14T14:27:53.146Z,5.97
2018-11-14T14:30:23.021Z,7.17
2018-11-14T14:32:51.953Z,5.70
2018-11-14T14:35:22.071Z,6.93
2018-11-14T14:37:50.882Z,6.67
2018-11-14T14:40:20.936Z,7.23
2018-11-14T14:42:51.532Z,7.80
2018-11-14T14:45:22.422Z,5.93
2018-11-14T14:47:51.958Z,5.23
2018-11-14T14:50:24.259Z,5.23
2018-11-14T14:52:53.250Z,6.07
2018-11-14T14:55:23.391Z,6.07
2018-11-14T14:57:52.242Z,5.33
2018-11-14T15:00:22.405Z,5.90
2018-11-14T15:02:51.192Z,5.07
2018-11-14T15:05:20.076Z,4.87
2018-11-14T15:07:48.912Z,5.27
2018-11-14T15:10:19.006Z,5.17
2018-11-14T15:12:47.745Z,6.50
2018-11-14T15:15:16.962Z,3.40
2018-11-14T15:17:45.822Z,3.70
2018-11-14T15:20:18.620Z,7.03
2018-11-14T15:22:47.524Z,6.43
2018-11-14T15:25:17.584Z,6.03
2018-11-14T15:27:47.026Z,5.83
2018-11-14T15:30:19.320Z,4.27
2018-11-14T15:32:48.116Z,4.13
2018-11-14T15:35:16.981Z,4.40
2018-11-14T15:37:45.802Z,6.27
2018-11-14T15:40:15.789Z,5.03
2018-11-14T15:42:44.752Z,5.17
2018-11-14T15:45:18.030Z,9.80
2018-11-14T15:47:46.794Z,5.80
2018-11-14T15:50:17.047Z,5.53
2018-11-14T15:52:47.538Z,5.90
2018-11-14T15:55:17.365Z,4.13
2018-11-14T15:57:46.166Z,3.70
2018-11-14T16:00:18.966Z,6.20
2018-11-14T16:02:47.820Z,3.73
2018-11-14T16:05:18.798Z,4.73
2018-11-14T16:07:48.701Z,4.80
2018-11-14T16:10:18.677Z,4.90
2018-11-14T16:12:49.968Z,5.60
2018-11-14T16:15:20.949Z,4.43
2018-11-14T16:17:49.740Z,5.27
2018-11-14T16:20:21.121Z,4.47
2018-11-14T16:22:50.049Z,4.97
2018-11-14T16:25:19.923Z,5.77
2018-11-14T16:27:49.533Z,4.47
2018-11-14T16:30:23.761Z,4.93
2018-11-14T16:32:53.709Z,4.33
2018-11-14T16:35:22.468Z,6.00
2018-11-14T16:37:51.935Z,5.10
2018-11-14T16:40:25.475Z,6.20
2018-11-14T16:42:55.221Z,5.33
2018-11-14T16:45:24.039Z,4.03
2018-11-14T16:47:52.788Z,3.67
2018-11-14T16:50:22.187Z,6.80
2018-11-14T16:52:50.940Z,4.80
2018-11-14T16:55:20.514Z,5.63
2018-11-14T16:57:50.128Z,7.23
2018-11-14T17:00:25.497Z,6.63
2018-11-14T17:02:54.244Z,4.93
2018-11-14T17:05:23.793Z,5.20
2018-11-14T17:07:52.558Z,6.53
2018-11-14T17:10:22.009Z,9.23
2018-11-14T17:12:52.081Z,7.27
2018-11-14T17:15:22.065Z,7.23
2018-11-14T17:17:50.821Z,8.00
2018-11-14T17:20:20.340Z,8.73
2018-11-14T17:22:49.601Z,8.90
2018-11-14T17:25:18.762Z,8.07
2018-11-14T17:27:47.778Z,7.20
2018-11-14T17:30:17.782Z,9.13
2018-11-14T17:32:46.699Z,6.70
2018-11-14T17:35:16.235Z,6.23
2018-11-14T17:37:45.678Z,8.37
2018-11-14T17:40:18.471Z,8.23
2018-11-14T17:42:48.129Z,9.63
2018-11-14T17:45:18.126Z,6.30
2018-11-14T17:47:47.388Z,11.23
2018-11-14T17:50:18.046Z,7.77
2018-11-14T17:52:47.850Z,8.00
2018-11-14T17:55:17.251Z,6.37
2018-11-14T17:57:46.110Z,7.20
2018-11-14T18:00:17.676Z,5.60
2018-11-14T18:02:46.846Z,7.33
2018-11-14T18:05:16.893Z,7.87
2018-11-14T18:07:46.328Z,6.57
2018-11-14T18:10:16.392Z,7.33
2018-11-14T18:12:46.047Z,6.97
2018-11-14T18:15:14.888Z,7.57
2018-11-14T18:17:43.724Z,9.93
2018-11-14T18:20:15.227Z,6.57
2018-11-14T18:22:44.661Z,6.87
2018-11-14T18:25:13.845Z,6.43
2018-11-14T18:27:42.824Z,8.03
2018-11-14T18:30:14.336Z,6.37
2018-11-14T18:32:43.075Z,6.03
2018-11-14T18:35:14.085Z,6.73
2018-11-14T18:37:43.517Z,6.13
2018-11-14T18:40:14.291Z,7.07
2018-11-14T18:42:43.005Z,8.83
2018-11-14T18:45:14.541Z,7.63
2018-11-14T18:47:43.591Z,7.50
2018-11-14T18:50:13.351Z,6.97
2018-11-14T18:52:42.259Z,6.13
2018-11-14T18:55:12.455Z,7.60
2018-11-14T18:57:41.572Z,7.80
2018-11-14T19:00:21.613Z,8.13
2018-11-14T19:02:50.485Z,8.23
2018-11-14T19:05:19.643Z,10.50
2018-11-14T19:07:48.443Z,9.33
2018-11-14T19:10:18.449Z,9.43
2018-11-14T19:12:56.488Z,9.60
2018-11-14T19:15:35.186Z,10.13
2018-11-14T19:18:04.108Z,9.40
2018-11-14T19:20:35.293Z,9.40
2018-11-14T19:23:04.822Z,7.73
2018-11-14T19:25:34.879Z,7.57
2018-11-14T19:28:03.637Z,8.03
2018-11-14T19:30:33.721Z,10.30
2018-11-14T19:33:02.835Z,8.90
2018-11-14T19:35:31.705Z,9.17
2018-11-14T19:38:00.663Z,7.90
2018-11-14T19:40:31.486Z,8.67
2018-11-14T19:43:01.452Z,8.67
2018-11-14T19:45:31.681Z,12.53
2018-11-14T19:48:00.413Z,8.80
2018-11-14T19:50:29.192Z,8.73
2018-11-14T19:52:58.027Z,10.37
2018-11-14T19:55:27.486Z,9.30
2018-11-14T19:57:57.139Z,8.43
2018-11-14T20:00:27.257Z,10.03
2018-11-14T20:02:55.935Z,10.03
2018-11-14T20:05:24.966Z,11.03
2018-11-14T20:07:53.762Z,9.93
2018-11-14T20:10:23.858Z,10.90
2018-11-14T20:12:53.020Z,9.27
2018-11-14T20:15:23.161Z,10.63
2018-11-14T20:17:52.053Z,11.10
2018-11-14T20:20:22.552Z,11.27
2018-11-14T20:22:51.348Z,10.03
2018-11-14T20:25:20.120Z,11.10
2018-11-14T20:27:48.948Z,10.03
2018-11-14T20:30:23.605Z,9.60
2018-11-14T20:32:53.079Z,10.60
2018-11-14T20:35:22.433Z,11.13
2018-11-14T20:37:51.046Z,11.53
2018-11-14T20:40:20.679Z,11.40
2018-11-14T20:42:50.301Z,10.57
2018-11-14T20:45:21.421Z,10.47
2018-11-14T20:47:50.223Z,10.97
2018-11-14T20:50:20.031Z,11.47
2018-11-14T20:52:50.081Z,10.73
2018-11-14T20:55:18.859Z,10.30
2018-11-14T20:57:47.517Z,10.20
2018-11-14T21:00:24.765Z,10.20
2018-11-14T21:02:53.836Z,11.30
2018-11-14T21:05:22.512Z,10.57
2018-11-14T21:07:51.162Z,10.63
2018-11-14T21:10:22.085Z,11.33
2018-11-14T21:12:51.501Z,9.57
2018-11-14T21:15:21.556Z,13.57
2018-11-14T21:17:50.890Z,10.00
2018-11-14T21:20:19.525Z,11.83
2018-11-14T21:22:48.394Z,12.90
2018-11-14T21:25:18.522Z,11.30
2018-11-14T21:27:48.131Z,13.73
2018-11-14T21:30:19.080Z,10.97
2018-11-14T21:32:47.931Z,10.90
2018-11-14T21:35:21.958Z,12.23
2018-11-14T21:37:52.166Z,11.10
2018-11-14T21:40:21.604Z,10.77
2018-11-14T21:42:50.856Z,10.97
2018-11-14T21:45:21.005Z,11.87
2018-11-14T21:47:55.056Z,11.50
2018-11-14T21:50:25.002Z,10.57
2018-11-14T21:52:53.840Z,12.47
2018-11-14T21:55:22.692Z,12.67
2018-11-14T21:57:51.482Z,12.37
2018-11-14T22:00:21.535Z,12.40
2018-11-14T22:02:51.880Z,11.87
2018-11-14T22:05:20.687Z,13.37
2018-11-14T22:07:49.461Z,11.77
2018-11-14T22:10:19.579Z,11.23
2018-11-14T22:12:48.576Z,11.63
2018-11-14T22:15:18.439Z,12.10
2018-11-14T22:17:47.521Z,11.90
2018-11-14T22:20:17.555Z,10.87
2018-11-14T22:22:46.722Z,11.23
2018-11-14T22:25:16.633Z,13.93
2018-11-14T22:27:45.394Z,11.57
2018-11-14T22:30:18.665Z,13.10
2018-11-14T22:32:47.524Z,14.13
2018-11-14T22:35:17.520Z,14.87
2018-11-14T22:37:46.227Z,12.63
2018-11-14T22:40:18.461Z,12.67
2018-11-14T22:42:47.399Z,11.97
2018-11-14T22:45:17.632Z,11.43
2018-11-14T22:47:46.852Z,11.73
2018-11-14T22:50:16.815Z,13.07
2018-11-14T22:52:46.045Z,13.93
2018-11-14T22:55:15.887Z,12.53
2018-11-14T22:57:45.522Z,11.97
2018-11-14T23:00:19.110Z,11.73
2018-11-14T23:02:49.017Z,13.83
2018-11-14T23:05:17.895Z,12.43
2018-11-14T23:07:47.492Z,14.37
2018-11-14T23:10:16.578Z,12.10
2018-11-14T23:12:45.272Z,14.07
2018-11-14T23:15:21.456Z,12.50
2018-11-14T23:17:52.984Z,12.03
2018-11-14T23:20:21.775Z,14.63
2018-11-14T23:22:51.471Z,14.37
2018-11-14T23:25:20.562Z,14.10
2018-11-14T23:27:51.525Z,14.07
2018-11-14T23:30:21.438Z,12.97
2018-11-14T23:32:51.190Z,14.10
2018-11-14T23:35:25.138Z,12.53
2018-11-14T23:37:55.016Z,14.73
2018-11-14T23:40:23.728Z,15.60
2018-11-14T23:42:52.690Z,12.37
2018-11-14T23:45:22.636Z,12.47
2018-11-14T23:47:51.506Z,14.77
2018-11-14T23:50:25.318Z,11.70
2018-11-14T23:52:55.090Z,14.73
2018-11-14T23:55:24.851Z,16.07
2018-11-14T23:57:53.667Z,12.87
